sensor_id;sensor_type;location;lat;lon;timestamp;temperature;humidity
51035;DHT22;37062;52.546;13.230;2023-04-01T00:01:10;13.50;99.90
51035;DHT22;37062;52.546;13.230;2023-04-01T00:03:42;13.40;99.90
51035;DHT22;37062;52.546;13.230;2023-04-01T00:06:13;13.40;99.90
51035;DHT22;37062;52.546;13.230;2023-04-01T00:08:41;13.30;99.90
51035;DHT22;37062;52.546;13.230;2023-04-01T00:11:11;13.30;99.90
51035;DHT22;37062;52.546;13.230;2023-04-01T00:13:40;13.30;99.90
51035;DHT22;37062;52.546;13.230;2023-04-01T00:16:08;13.30;99.90
51035;DHT22;37062;52.546;13.230;2023-04-01T00:18:50;13.40;99.90
51035;DHT22;37062;52.546;13.230;2023-04-01T00:21:19;13.30;99.90
51035;DHT22;37062;52.546;13.230;2023-04-01T00:23:49;13.30;99.90
51035;DHT22;37062;52.546;13.230;2023-04-01T00:26:18;13.30;99.90
51035;DHT22;37062;52.546;13.230;2023-04-01T00:28:48;13.40;99.90
51035;DHT22;37062;52.546;13.230;2023-04-01T00:31:17;13.40;99.90
51035;DHT22;37062;52.546;13.230;2023-04-01T00:33:45;13.40;99.90
51035;DHT22;37062;52.546;13.230;2023-04-01T00:36:17;13.40;99.90
51035;DHT22;37062;52.546;13.230;2023-04-01T00:38:46;13.40;99.90
51035;DHT22;37062;52.546;13.230;2023-04-01T00:41:16;13.30;99.90
51035;DHT22;37062;52.546;13.230;2023-04-01T00:43:45;13.40;99.90
51035;DHT22;37062;52.546;13.230;2023-04-01T00:46:14;13.30;99.90
51035;DHT22;37062;52.546;13.230;2023-04-01T00:48:46;13.40;99.90
51035;DHT22;37062;52.546;13.230;2023-04-01T00:51:18;13.30;99.90
51035;DHT22;37062;52.546;13.230;2023-04-01T00:53:51;13.30;99.90
51035;DHT22;37062;52.546;13.230;2023-04-01T00:56:23;13.40;99.90
51035;DHT22;37062;52.546;13.230;2023-04-01T00:58:57;13.40;99.90
51035;DHT22;37062;52.546;13.230;2023-04-01T01:01:28;13.40;99.90
51035;DHT22;37062;52.546;13.230;2023-04-01T01:03:58;13.40;99.90
51035;DHT22;37062;52.546;13.230;2023-04-01T01:06:37;13.30;99.90
51035;DHT22;37062;52.546;13.230;2023-04-01T01:09:23;13.40;99.90
51035;DHT22;37062;52.546;13.230;2023-04-01T01:11:58;13.40;99.90
51035;DHT22;37062;52.546;13.230;2023-04-01T01:14:36;13.40;99.90
51035;DHT22;37062;52.546;13.230;2023-04-01T01:17:12;13.40;99.90
51035;DHT22;37062;52.546;13.230;2023-04-01T01:25:58;13.40;99.90
51035;DHT22;37062;52.546;13.230;2023-04-01T01:28:38;13.40;99.90
51035;DHT22;37062;52.546;13.230;2023-04-01T01:31:19;13.40;99.90
51035;DHT22;37062;52.546;13.230;2023-04-01T01:34:04;13.40;99.90
51035;DHT22;37062;52.546;13.230;2023-04-01T01:36:38;13.40;99.90
51035;DHT22;37062;52.546;13.230;2023-04-01T01:39:10;13.40;99.90
51035;DHT22;37062;52.546;13.230;2023-04-01T01:41:39;13.40;99.90
51035;DHT22;37062;52.546;13.230;2023-04-01T01:44:12;13.40;99.90
51035;DHT22;37062;52.546;13.230;2023-04-01T01:46:43;13.40;99.90
51035;DHT22;37062;52.546;13.230;2023-04-01T01:49:12;13.40;99.90
51035;DHT22;37062;52.546;13.230;2023-04-01T01:51:43;13.40;99.90
51035;DHT22;37062;52.546;13.230;2023-04-01T01:54:13;13.40;99.90
51035;DHT22;37062;52.546;13.230;2023-04-01T01:56:43;13.30;99.90
51035;DHT22;37062;52.546;13.230;2023-04-01T01:59:15;13.30;99.90
51035;DHT22;37062;52.546;13.230;2023-04-01T02:01:52;13.30;99.90
51035;DHT22;37062;52.546;13.230;2023-04-01T02:04:21;13.30;99.90
51035;DHT22;37062;52.546;13.230;2023-04-01T02:06:58;13.30;99.90
51035;DHT22;37062;52.546;13.230;2023-04-01T02:09:27;13.30;99.90
51035;DHT22;37062;52.546;13.230;2023-04-01T02:11:58;13.30;99.90
51035;DHT22;37062;52.546;13.230;2023-04-01T02:14:35;13.30;99.90
51035;DHT22;37062;52.546;13.230;2023-04-01T02:17:10;13.30;99.90
51035;DHT22;37062;52.546;13.230;2023-04-01T02:19:44;13.30;99.90
51035;DHT22;37062;52.546;13.230;2023-04-01T02:22:20;13.30;99.90
51035;DHT22;37062;52.546;13.230;2023-04-01T02:24:51;13.30;99.90
51035;DHT22;37062;52.546;13.230;2023-04-01T02:27:20;13.30;99.90
51035;DHT22;37062;52.546;13.230;2023-04-01T02:29:49;13.30;99.90
51035;DHT22;37062;52.546;13.230;2023-04-01T02:32:19;13.30;99.90
51035;DHT22;37062;52.546;13.230;2023-04-01T02:34:48;13.20;99.90
51035;DHT22;37062;52.546;13.230;2023-04-01T02:37:18;13.20;99.90
51035;DHT22;37062;52.546;13.230;2023-04-01T02:39:46;13.20;99.90
51035;DHT22;37062;52.546;13.230;2023-04-01T02:42:15;13.20;99.90
51035;DHT22;37062;52.546;13.230;2023-04-01T02:44:43;13.20;99.90
51035;DHT22;37062;52.546;13.230;2023-04-01T02:47:11;13.10;99.90
51035;DHT22;37062;52.546;13.230;2023-04-01T02:49:40;13.10;99.90
51035;DHT22;37062;52.546;13.230;2023-04-01T02:52:08;13.10;99.90
51035;DHT22;37062;52.546;13.230;2023-04-01T02:54:38;13.00;99.90
51035;DHT22;37062;52.546;13.230;2023-04-01T02:57:07;13.00;99.90
51035;DHT22;37062;52.546;13.230;2023-04-01T02:59:35;13.00;99.90
51035;DHT22;37062;52.546;13.230;2023-04-01T03:02:05;13.10;99.90
51035;DHT22;37062;52.546;13.230;2023-04-01T03:04:34;13.10;99.90
51035;DHT22;37062;52.546;13.230;2023-04-01T03:07:02;13.00;99.90
51035;DHT22;37062;52.546;13.230;2023-04-01T03:09:31;13.00;99.90
51035;DHT22;37062;52.546;13.230;2023-04-01T03:12:01;13.00;99.90
51035;DHT22;37062;52.546;13.230;2023-04-01T03:14:33;13.00;99.90
51035;DHT22;37062;52.546;13.230;2023-04-01T03:17:01;13.10;99.90
51035;DHT22;37062;52.546;13.230;2023-04-01T03:19:29;13.10;99.90
51035;DHT22;37062;52.546;13.230;2023-04-01T03:21:59;13.10;99.90
51035;DHT22;37062;52.546;13.230;2023-04-01T03:24:27;13.10;99.90
51035;DHT22;37062;52.546;13.230;2023-04-01T03:26:56;13.20;99.90
51035;DHT22;37062;52.546;13.230;2023-04-01T03:29:25;13.10;99.90
51035;DHT22;37062;52.546;13.230;2023-04-01T03:31:53;13.10;99.90
51035;DHT22;37062;52.546;13.230;2023-04-01T03:34:24;13.10;99.90
51035;DHT22;37062;52.546;13.230;2023-04-01T03:36:53;13.10;99.90
51035;DHT22;37062;52.546;13.230;2023-04-01T03:39:21;13.20;99.90
51035;DHT22;37062;52.546;13.230;2023-04-01T03:41:50;13.20;99.90
51035;DHT22;37062;52.546;13.230;2023-04-01T03:44:18;13.20;99.90
51035;DHT22;37062;52.546;13.230;2023-04-01T03:46:51;13.20;99.90
51035;DHT22;37062;52.546;13.230;2023-04-01T03:49:19;13.20;99.90
51035;DHT22;37062;52.546;13.230;2023-04-01T03:51:48;13.20;99.90
51035;DHT22;37062;52.546;13.230;2023-04-01T03:54:17;13.20;99.90
51035;DHT22;37062;52.546;13.230;2023-04-01T03:56:46;13.10;99.90
51035;DHT22;37062;52.546;13.230;2023-04-01T03:59:15;13.10;99.90
51035;DHT22;37062;52.546;13.230;2023-04-01T04:01:45;13.10;99.90
51035;DHT22;37062;52.546;13.230;2023-04-01T04:04:15;13.10;99.90
51035;DHT22;37062;52.546;13.230;2023-04-01T04:06:44;13.10;99.90
51035;DHT22;37062;52.546;13.230;2023-04-01T04:09:13;13.10;99.90
51035;DHT22;37062;52.546;13.230;2023-04-01T04:11:41;13.10;99.90
51035;DHT22;37062;52.546;13.230;2023-04-01T04:14:10;13.10;99.90
51035;DHT22;37062;52.546;13.230;2023-04-01T04:16:38;13.10;99.90
51035;DHT22;37062;52.546;13.230;2023-04-01T04:19:07;13.10;99.90
51035;DHT22;37062;52.546;13.230;2023-04-01T04:21:37;13.10;99.90
51035;DHT22;37062;52.546;13.230;2023-04-01T04:24:06;13.10;99.90
51035;DHT22;37062;52.546;13.230;2023-04-01T04:27:06;13.10;99.90
51035;DHT22;37062;52.546;13.230;2023-04-01T04:29:41;13.10;99.90
51035;DHT22;37062;52.546;13.230;2023-04-01T04:32:10;13.10;99.90
51035;DHT22;37062;52.546;13.230;2023-04-01T04:34:38;13.10;99.90
51035;DHT22;37062;52.546;13.230;2023-04-01T04:37:08;13.10;99.90
51035;DHT22;37062;52.546;13.230;2023-04-01T04:39:37;13.10;99.90
51035;DHT22;37062;52.546;13.230;2023-04-01T04:42:06;13.10;99.90
51035;DHT22;37062;52.546;13.230;2023-04-01T04:44:34;13.10;99.90
51035;DHT22;37062;52.546;13.230;2023-04-01T04:47:03;13.10;99.90
51035;DHT22;37062;52.546;13.230;2023-04-01T04:49:31;13.10;99.90
51035;DHT22;37062;52.546;13.230;2023-04-01T04:52:05;13.00;99.90
51035;DHT22;37062;52.546;13.230;2023-04-01T04:54:34;13.00;99.90
51035;DHT22;37062;52.546;13.230;2023-04-01T04:57:03;13.00;99.90
51035;DHT22;37062;52.546;13.230;2023-04-01T04:59:38;13.00;99.90
51035;DHT22;37062;52.546;13.230;2023-04-01T05:02:13;13.00;99.90
51035;DHT22;37062;52.546;13.230;2023-04-01T05:04:41;13.00;99.90
51035;DHT22;37062;52.546;13.230;2023-04-01T05:07:10;13.00;99.90
51035;DHT22;37062;52.546;13.230;2023-04-01T05:09:40;13.00;99.90
51035;DHT22;37062;52.546;13.230;2023-04-01T05:12:08;13.00;99.90
51035;DHT22;37062;52.546;13.230;2023-04-01T05:15:08;13.00;99.90
51035;DHT22;37062;52.546;13.230;2023-04-01T05:17:38;13.10;99.90
51035;DHT22;37062;52.546;13.230;2023-04-01T05:20:07;13.10;99.90
51035;DHT22;37062;52.546;13.230;2023-04-01T05:22:35;13.10;99.90
51035;DHT22;37062;52.546;13.230;2023-04-01T05:25:06;13.10;99.90
51035;DHT22;37062;52.546;13.230;2023-04-01T05:27:34;13.10;99.90
51035;DHT22;37062;52.546;13.230;2023-04-01T05:30:03;13.10;99.90
51035;DHT22;37062;52.546;13.230;2023-04-01T05:32:41;13.20;99.90
51035;DHT22;37062;52.546;13.230;2023-04-01T05:35:11;13.20;99.90
51035;DHT22;37062;52.546;13.230;2023-04-01T05:37:39;13.30;99.90
51035;DHT22;37062;52.546;13.230;2023-04-01T05:40:10;13.30;99.90
51035;DHT22;37062;52.546;13.230;2023-04-01T05:42:38;13.40;99.90
51035;DHT22;37062;52.546;13.230;2023-04-01T05:45:08;13.40;99.90
51035;DHT22;37062;52.546;13.230;2023-04-01T05:47:54;13.50;99.90
51035;DHT22;37062;52.546;13.230;2023-04-01T05:50:22;13.50;99.90
51035;DHT22;37062;52.546;13.230;2023-04-01T05:52:52;13.50;99.90
51035;DHT22;37062;52.546;13.230;2023-04-01T05:55:22;13.60;99.90
51035;DHT22;37062;52.546;13.230;2023-04-01T05:57:51;13.60;99.90
51035;DHT22;37062;52.546;13.230;2023-04-01T06:00:19;13.60;99.90
51035;DHT22;37062;52.546;13.230;2023-04-01T06:02:48;13.70;99.90
51035;DHT22;37062;52.546;13.230;2023-04-01T06:05:21;13.70;99.90
51035;DHT22;37062;52.546;13.230;2023-04-01T06:07:51;13.70;99.90
51035;DHT22;37062;52.546;13.230;2023-04-01T06:10:36;13.60;99.90
51035;DHT22;37062;52.546;13.230;2023-04-01T06:13:12;13.70;99.90
51035;DHT22;37062;52.546;13.230;2023-04-01T06:15:52;13.60;99.90
51035;DHT22;37062;52.546;13.230;2023-04-01T06:18:43;13.60;99.90
51035;DHT22;37062;52.546;13.230;2023-04-01T06:21:37;13.60;99.90
51035;DHT22;37062;52.546;13.230;2023-04-01T06:24:25;13.60;99.90
51035;DHT22;37062;52.546;13.230;2023-04-01T06:27:06;13.60;99.90
51035;DHT22;37062;52.546;13.230;2023-04-01T06:29:58;13.60;99.90
51035;DHT22;37062;52.546;13.230;2023-04-01T06:32:53;13.60;99.90
51035;DHT22;37062;52.546;13.230;2023-04-01T06:35:51;13.60;99.90
51035;DHT22;37062;52.546;13.230;2023-04-01T06:41:45;13.70;99.90
51035;DHT22;37062;52.546;13.230;2023-04-01T06:44:25;13.60;99.90
51035;DHT22;37062;52.546;13.230;2023-04-01T06:47:26;13.70;99.90
51035;DHT22;37062;52.546;13.230;2023-04-01T06:50:41;13.80;99.90
51035;DHT22;37062;52.546;13.230;2023-04-01T06:53:36;13.80;99.90
51035;DHT22;37062;52.546;13.230;2023-04-01T06:56:29;13.80;99.90
51035;DHT22;37062;52.546;13.230;2023-04-01T06:59:08;13.90;99.90
51035;DHT22;37062;52.546;13.230;2023-04-01T07:01:41;13.90;99.90
51035;DHT22;37062;52.546;13.230;2023-04-01T07:04:14;14.00;99.90
51035;DHT22;37062;52.546;13.230;2023-04-01T07:06:47;14.00;99.90
51035;DHT22;37062;52.546;13.230;2023-04-01T07:09:19;14.00;99.90
51035;DHT22;37062;52.546;13.230;2023-04-01T07:12:15;14.00;99.90
51035;DHT22;37062;52.546;13.230;2023-04-01T07:15:21;14.10;99.90
51035;DHT22;37062;52.546;13.230;2023-04-01T07:17:55;14.20;99.90
51035;DHT22;37062;52.546;13.230;2023-04-01T07:20:28;14.10;99.90
51035;DHT22;37062;52.546;13.230;2023-04-01T07:22:59;14.20;99.90
51035;DHT22;37062;52.546;13.230;2023-04-01T07:25:36;14.20;99.90
51035;DHT22;37062;52.546;13.230;2023-04-01T07:28:35;14.30;99.90
51035;DHT22;37062;52.546;13.230;2023-04-01T07:31:18;14.40;99.90
51035;DHT22;37062;52.546;13.230;2023-04-01T07:33:57;14.40;99.90
51035;DHT22;37062;52.546;13.230;2023-04-01T07:36:31;14.40;99.90
51035;DHT22;37062;52.546;13.230;2023-04-01T07:39:08;14.40;99.90
51035;DHT22;37062;52.546;13.230;2023-04-01T07:42:00;14.50;99.90
51035;DHT22;37062;52.546;13.230;2023-04-01T07:44:38;14.50;99.90
51035;DHT22;37062;52.546;13.230;2023-04-01T07:47:29;14.50;99.90
51035;DHT22;37062;52.546;13.230;2023-04-01T07:50:11;14.30;99.90
51035;DHT22;37062;52.546;13.230;2023-04-01T07:52:48;14.30;99.90
51035;DHT22;37062;52.546;13.230;2023-04-01T07:55:27;14.30;99.90
51035;DHT22;37062;52.546;13.230;2023-04-01T07:58:03;14.10;99.90
51035;DHT22;37062;52.546;13.230;2023-04-01T08:00:47;14.10;99.90
51035;DHT22;37062;52.546;13.230;2023-04-01T08:03:43;14.10;99.90
51035;DHT22;37062;52.546;13.230;2023-04-01T08:06:22;14.10;99.90
51035;DHT22;37062;52.546;13.230;2023-04-01T08:09:02;14.00;99.90
51035;DHT22;37062;52.546;13.230;2023-04-01T08:12:01;14.00;99.90
51035;DHT22;37062;52.546;13.230;2023-04-01T08:15:12;14.00;99.90
51035;DHT22;37062;52.546;13.230;2023-04-01T08:18:06;14.10;99.90
51035;DHT22;37062;52.546;13.230;2023-04-01T08:20:41;14.00;99.90
51035;DHT22;37062;52.546;13.230;2023-04-01T08:23:15;13.90;99.90
51035;DHT22;37062;52.546;13.230;2023-04-01T08:25:50;13.80;99.90
51035;DHT22;37062;52.546;13.230;2023-04-01T08:28:24;13.70;99.90
51035;DHT22;37062;52.546;13.230;2023-04-01T08:30:57;13.70;99.90
51035;DHT22;37062;52.546;13.230;2023-04-01T08:33:30;13.50;99.90
51035;DHT22;37062;52.546;13.230;2023-04-01T08:36:05;13.40;99.90
51035;DHT22;37062;52.546;13.230;2023-04-01T08:38:42;13.40;99.90
51035;DHT22;37062;52.546;13.230;2023-04-01T08:44:50;13.00;99.90
51035;DHT22;37062;52.546;13.230;2023-04-01T08:48:07;12.80;99.90
51035;DHT22;37062;52.546;13.230;2023-04-01T08:51:16;12.60;99.90
51035;DHT22;37062;52.546;13.230;2023-04-01T08:54:17;12.30;99.90
51035;DHT22;37062;52.546;13.230;2023-04-01T08:56:59;12.30;99.90
51035;DHT22;37062;52.546;13.230;2023-04-01T08:59:37;12.20;99.90
51035;DHT22;37062;52.546;13.230;2023-04-01T09:02:50;11.90;99.90
51035;DHT22;37062;52.546;13.230;2023-04-01T09:05:37;11.80;99.90
51035;DHT22;37062;52.546;13.230;2023-04-01T09:08:22;11.80;99.90
51035;DHT22;37062;52.546;13.230;2023-04-01T09:11:06;11.80;99.90
51035;DHT22;37062;52.546;13.230;2023-04-01T09:14:26;11.80;99.90
51035;DHT22;37062;52.546;13.230;2023-04-01T09:17:41;11.80;99.90
51035;DHT22;37062;52.546;13.230;2023-04-01T09:20:32;11.90;99.90
51035;DHT22;37062;52.546;13.230;2023-04-01T09:23:29;12.10;99.90
51035;DHT22;37062;52.546;13.230;2023-04-01T09:26:09;12.20;99.90
51035;DHT22;37062;52.546;13.230;2023-04-01T09:28:45;12.20;99.90
51035;DHT22;37062;52.546;13.230;2023-04-01T09:31:39;12.20;99.90
51035;DHT22;37062;52.546;13.230;2023-04-01T09:34:35;12.20;99.90
51035;DHT22;37062;52.546;13.230;2023-04-01T09:37:19;12.20;99.90
51035;DHT22;37062;52.546;13.230;2023-04-01T09:40:16;12.10;99.90
51035;DHT22;37062;52.546;13.230;2023-04-01T09:43:02;12.20;99.90
51035;DHT22;37062;52.546;13.230;2023-04-01T09:45:47;12.10;99.90
51035;DHT22;37062;52.546;13.230;2023-04-01T09:48:43;11.90;99.90
51035;DHT22;37062;52.546;13.230;2023-04-01T09:51:26;11.80;99.90
51035;DHT22;37062;52.546;13.230;2023-04-01T09:54:12;11.80;99.90
51035;DHT22;37062;52.546;13.230;2023-04-01T10:00:24;11.70;99.90
51035;DHT22;37062;52.546;13.230;2023-04-01T10:03:19;11.60;99.90
51035;DHT22;37062;52.546;13.230;2023-04-01T10:06:27;11.60;99.90
51035;DHT22;37062;52.546;13.230;2023-04-01T10:15:26;11.50;99.90
51035;DHT22;37062;52.546;13.230;2023-04-01T10:21:25;11.50;99.90
51035;DHT22;37062;52.546;13.230;2023-04-01T10:24:24;11.50;99.90
51035;DHT22;37062;52.546;13.230;2023-04-01T10:27:30;11.50;99.90
51035;DHT22;37062;52.546;13.230;2023-04-01T10:36:52;11.70;99.90
51035;DHT22;37062;52.546;13.230;2023-04-01T10:39:48;11.60;99.90
51035;DHT22;37062;52.546;13.230;2023-04-01T10:46:46;11.60;99.90
51035;DHT22;37062;52.546;13.230;2023-04-01T10:49:55;11.50;99.90
51035;DHT22;37062;52.546;13.230;2023-04-01T10:56:36;11.60;99.90
51035;DHT22;37062;52.546;13.230;2023-04-01T11:06:37;11.80;99.90
51035;DHT22;37062;52.546;13.230;2023-04-01T11:16:21;10.90;99.90
51035;DHT22;37062;52.546;13.230;2023-04-01T11:19:19;10.60;99.90
51035;DHT22;37062;52.546;13.230;2023-04-01T11:21:59;10.30;99.90
51035;DHT22;37062;52.546;13.230;2023-04-01T11:28:25;10.40;99.90
51035;DHT22;37062;52.546;13.230;2023-04-01T11:31:11;10.40;99.90
51035;DHT22;37062;52.546;13.230;2023-04-01T11:33:47;10.30;99.90
51035;DHT22;37062;52.546;13.230;2023-04-01T11:36:30;10.30;99.90
51035;DHT22;37062;52.546;13.230;2023-04-01T11:39:14;10.20;99.90
51035;DHT22;37062;52.546;13.230;2023-04-01T11:42:14;10.10;99.90
51035;DHT22;37062;52.546;13.230;2023-04-01T11:45:13;10.30;99.90
51035;DHT22;37062;52.546;13.230;2023-04-01T11:48:03;10.30;99.90
51035;DHT22;37062;52.546;13.230;2023-04-01T11:50:45;10.20;99.90
51035;DHT22;37062;52.546;13.230;2023-04-01T11:53:29;10.20;99.90
51035;DHT22;37062;52.546;13.230;2023-04-01T11:56:08;10.30;99.90
51035;DHT22;37062;52.546;13.230;2023-04-01T11:59:11;10.30;99.90
51035;DHT22;37062;52.546;13.230;2023-04-01T12:01:53;10.20;99.90
51035;DHT22;37062;52.546;13.230;2023-04-01T12:04:46;10.30;99.90
51035;DHT22;37062;52.546;13.230;2023-04-01T12:07:45;10.40;99.90
51035;DHT22;37062;52.546;13.230;2023-04-01T12:10:21;10.30;99.90
51035;DHT22;37062;52.546;13.230;2023-04-01T12:12:56;10.40;99.90
51035;DHT22;37062;52.546;13.230;2023-04-01T12:15:35;10.40;99.90
51035;DHT22;37062;52.546;13.230;2023-04-01T12:18:12;10.50;99.90
51035;DHT22;37062;52.546;13.230;2023-04-01T12:20:49;10.60;99.90
51035;DHT22;37062;52.546;13.230;2023-04-01T12:23:50;10.60;99.90
51035;DHT22;37062;52.546;13.230;2023-04-01T12:26:47;10.60;99.90
51035;DHT22;37062;52.546;13.230;2023-04-01T12:29:47;10.30;99.90
51035;DHT22;37062;52.546;13.230;2023-04-01T12:32:22;10.40;99.90
51035;DHT22;37062;52.546;13.230;2023-04-01T12:35:15;10.40;99.90
51035;DHT22;37062;52.546;13.230;2023-04-01T12:37:59;10.20;99.90
51035;DHT22;37062;52.546;13.230;2023-04-01T12:40:45;10.20;99.90
51035;DHT22;37062;52.546;13.230;2023-04-01T12:43:44;10.00;99.90
51035;DHT22;37062;52.546;13.230;2023-04-01T12:46:20;10.00;99.90
51035;DHT22;37062;52.546;13.230;2023-04-01T12:49:06;10.00;99.90
51035;DHT22;37062;52.546;13.230;2023-04-01T12:52:01;10.10;99.90
51035;DHT22;37062;52.546;13.230;2023-04-01T12:58:06;10.30;99.90
51035;DHT22;37062;52.546;13.230;2023-04-01T13:00:54;10.00;99.90
51035;DHT22;37062;52.546;13.230;2023-04-01T13:03:46;9.80;99.90
51035;DHT22;37062;52.546;13.230;2023-04-01T13:06:38;9.80;99.90
51035;DHT22;37062;52.546;13.230;2023-04-01T13:09:18;9.90;99.90
51035;DHT22;37062;52.546;13.230;2023-04-01T13:11:58;9.80;99.90
51035;DHT22;37062;52.546;13.230;2023-04-01T13:15:02;9.60;99.90
51035;DHT22;37062;52.546;13.230;2023-04-01T13:17:42;9.90;99.90
51035;DHT22;37062;52.546;13.230;2023-04-01T13:20:20;9.70;99.90
51035;DHT22;37062;52.546;13.230;2023-04-01T13:23:01;9.60;99.90
51035;DHT22;37062;52.546;13.230;2023-04-01T13:25:36;9.50;99.90
51035;DHT22;37062;52.546;13.230;2023-04-01T13:28:17;9.50;99.90
51035;DHT22;37062;52.546;13.230;2023-04-01T13:30:56;9.60;99.90
51035;DHT22;37062;52.546;13.230;2023-04-01T13:33:30;9.70;99.90
51035;DHT22;37062;52.546;13.230;2023-04-01T13:36:14;9.70;99.90
51035;DHT22;37062;52.546;13.230;2023-04-01T13:39:02;9.70;99.90
51035;DHT22;37062;52.546;13.230;2023-04-01T13:41:54;9.60;99.90
51035;DHT22;37062;52.546;13.230;2023-04-01T13:44:30;9.40;99.90
51035;DHT22;37062;52.546;13.230;2023-04-01T13:47:23;9.40;99.90
51035;DHT22;37062;52.546;13.230;2023-04-01T13:50:07;9.60;99.90
51035;DHT22;37062;52.546;13.230;2023-04-01T13:52:58;9.50;99.90
51035;DHT22;37062;52.546;13.230;2023-04-01T13:55:43;9.30;99.90
51035;DHT22;37062;52.546;13.230;2023-04-01T13:58:30;9.30;99.90
51035;DHT22;37062;52.546;13.230;2023-04-01T14:01:08;9.30;99.90
51035;DHT22;37062;52.546;13.230;2023-04-01T14:04:09;9.30;99.90
51035;DHT22;37062;52.546;13.230;2023-04-01T14:06:52;9.30;99.90
51035;DHT22;37062;52.546;13.230;2023-04-01T14:12:30;9.30;99.90
51035;DHT22;37062;52.546;13.230;2023-04-01T14:15:20;9.40;99.90
51035;DHT22;37062;52.546;13.230;2023-04-01T14:18:00;9.30;99.90
51035;DHT22;37062;52.546;13.230;2023-04-01T14:20:40;9.20;99.90
51035;DHT22;37062;52.546;13.230;2023-04-01T14:23:39;9.20;99.90
51035;DHT22;37062;52.546;13.230;2023-04-01T14:26:40;9.30;99.90
51035;DHT22;37062;52.546;13.230;2023-04-01T14:29:21;9.20;99.90
51035;DHT22;37062;52.546;13.230;2023-04-01T14:32:10;9.20;99.90
51035;DHT22;37062;52.546;13.230;2023-04-01T14:34:55;9.20;99.90
51035;DHT22;37062;52.546;13.230;2023-04-01T14:37:55;9.20;99.90
51035;DHT22;37062;52.546;13.230;2023-04-01T14:40:27;9.20;99.90
51035;DHT22;37062;52.546;13.230;2023-04-01T14:43:10;9.20;99.90
51035;DHT22;37062;52.546;13.230;2023-04-01T14:45:55;9.20;99.90
51035;DHT22;37062;52.546;13.230;2023-04-01T14:48:32;9.10;99.90
51035;DHT22;37062;52.546;13.230;2023-04-01T14:51:09;9.10;99.90
51035;DHT22;37062;52.546;13.230;2023-04-01T14:53:50;9.10;99.90
51035;DHT22;37062;52.546;13.230;2023-04-01T14:56:35;9.00;99.90
51035;DHT22;37062;52.546;13.230;2023-04-01T14:59:09;8.90;99.90
51035;DHT22;37062;52.546;13.230;2023-04-01T15:01:43;8.90;99.90
51035;DHT22;37062;52.546;13.230;2023-04-01T15:04:33;8.90;99.90
51035;DHT22;37062;52.546;13.230;2023-04-01T15:07:26;8.90;99.90
51035;DHT22;37062;52.546;13.230;2023-04-01T15:10:06;8.90;99.90
51035;DHT22;37062;52.546;13.230;2023-04-01T15:12:42;9.00;99.90
51035;DHT22;37062;52.546;13.230;2023-04-01T15:15:32;9.00;99.90
51035;DHT22;37062;52.546;13.230;2023-04-01T15:18:13;9.10;99.90
51035;DHT22;37062;52.546;13.230;2023-04-01T15:20:56;9.30;99.90
51035;DHT22;37062;52.546;13.230;2023-04-01T15:23:37;9.20;99.90
51035;DHT22;37062;52.546;13.230;2023-04-01T15:26:19;9.10;99.90
51035;DHT22;37062;52.546;13.230;2023-04-01T15:28:59;9.00;99.90
51035;DHT22;37062;52.546;13.230;2023-04-01T15:31:36;8.90;99.90
51035;DHT22;37062;52.546;13.230;2023-04-01T15:34:21;8.90;99.90
51035;DHT22;37062;52.546;13.230;2023-04-01T15:36:56;8.90;99.90
51035;DHT22;37062;52.546;13.230;2023-04-01T15:39:31;8.90;99.90
51035;DHT22;37062;52.546;13.230;2023-04-01T15:42:17;8.80;99.90
51035;DHT22;37062;52.546;13.230;2023-04-01T15:45:02;8.90;99.90
51035;DHT22;37062;52.546;13.230;2023-04-01T15:47:45;8.90;99.90
51035;DHT22;37062;52.546;13.230;2023-04-01T15:50:49;8.90;99.90
51035;DHT22;37062;52.546;13.230;2023-04-01T15:56:41;8.80;99.90
51035;DHT22;37062;52.546;13.230;2023-04-01T15:59:24;8.90;99.90
51035;DHT22;37062;52.546;13.230;2023-04-01T16:02:01;8.80;99.90
51035;DHT22;37062;52.546;13.230;2023-04-01T16:04:45;8.70;99.90
51035;DHT22;37062;52.546;13.230;2023-04-01T16:07:36;8.80;99.90
51035;DHT22;37062;52.546;13.230;2023-04-01T16:10:36;8.90;99.90
51035;DHT22;37062;52.546;13.230;2023-04-01T16:13:21;8.90;99.90
51035;DHT22;37062;52.546;13.230;2023-04-01T16:16:00;8.60;99.90
51035;DHT22;37062;52.546;13.230;2023-04-01T16:18:40;8.50;99.90
51035;DHT22;37062;52.546;13.230;2023-04-01T16:21:14;8.30;99.90
51035;DHT22;37062;52.546;13.230;2023-04-01T16:23:51;8.30;99.90
51035;DHT22;37062;52.546;13.230;2023-04-01T16:26:25;8.30;99.90
51035;DHT22;37062;52.546;13.230;2023-04-01T16:28:57;8.30;99.90
51035;DHT22;37062;52.546;13.230;2023-04-01T16:31:34;8.10;99.90
51035;DHT22;37062;52.546;13.230;2023-04-01T16:34:08;8.00;99.90
51035;DHT22;37062;52.546;13.230;2023-04-01T16:36:42;8.10;99.90
51035;DHT22;37062;52.546;13.230;2023-04-01T16:39:25;8.10;99.90
51035;DHT22;37062;52.546;13.230;2023-04-01T16:44:56;8.00;99.90
51035;DHT22;37062;52.546;13.230;2023-04-01T16:47:30;8.10;99.90
51035;DHT22;37062;52.546;13.230;2023-04-01T16:50:06;8.20;99.90
51035;DHT22;37062;52.546;13.230;2023-04-01T16:52:53;8.00;99.90
51035;DHT22;37062;52.546;13.230;2023-04-01T16:55:35;7.90;99.90
51035;DHT22;37062;52.546;13.230;2023-04-01T16:58:05;7.80;99.90
51035;DHT22;37062;52.546;13.230;2023-04-01T17:00:39;7.80;99.90
51035;DHT22;37062;52.546;13.230;2023-04-01T17:03:13;7.80;99.90
51035;DHT22;37062;52.546;13.230;2023-04-01T17:05:58;7.70;99.90
51035;DHT22;37062;52.546;13.230;2023-04-01T17:08:38;7.70;99.90
51035;DHT22;37062;52.546;13.230;2023-04-01T17:11:12;7.70;99.90
51035;DHT22;37062;52.546;13.230;2023-04-01T17:13:49;7.70;99.90
51035;DHT22;37062;52.546;13.230;2023-04-01T17:16:48;7.70;99.90
51035;DHT22;37062;52.546;13.230;2023-04-01T17:19:35;7.50;99.90
51035;DHT22;37062;52.546;13.230;2023-04-01T17:22:17;7.30;99.90
51035;DHT22;37062;52.546;13.230;2023-04-01T17:24:59;7.40;99.90
51035;DHT22;37062;52.546;13.230;2023-04-01T17:27:40;7.40;99.90
51035;DHT22;37062;52.546;13.230;2023-04-01T17:30:19;7.30;99.90
51035;DHT22;37062;52.546;13.230;2023-04-01T17:33:10;7.20;99.90
51035;DHT22;37062;52.546;13.230;2023-04-01T17:35:50;7.30;99.90
51035;DHT22;37062;52.546;13.230;2023-04-01T17:38:36;7.10;99.90
51035;DHT22;37062;52.546;13.230;2023-04-01T17:41:08;7.10;99.90
51035;DHT22;37062;52.546;13.230;2023-04-01T17:43:47;7.00;99.90
51035;DHT22;37062;52.546;13.230;2023-04-01T17:46:31;7.00;99.90
51035;DHT22;37062;52.546;13.230;2023-04-01T17:49:05;6.90;99.90